createdAt,value
2022-08-04T00:00:50.852Z,60
2022-08-04T00:02:50.913Z,59
2022-08-04T00:04:50.427Z,59
2022-08-04T00:06:50.957Z,60
2022-08-04T00:08:56.137Z,60
2022-08-04T00:10:50.199Z,60
2022-08-04T00:12:51.084Z,60
2022-08-04T00:14:51.023Z,59
2022-08-04T00:16:50.446Z,60
2022-08-04T00:18:50.722Z,60
2022-08-04T00:20:50.816Z,60
2022-08-04T00:22:50.690Z,60
2022-08-04T00:24:50.857Z,60
2022-08-04T00:26:50.197Z,60
2022-08-04T00:28:50.282Z,60
2022-08-04T00:30:50.750Z,60
2022-08-04T00:32:50.853Z,60
2022-08-04T00:34:53.104Z,60
2022-08-04T00:36:50.788Z,61
2022-08-04T00:38:52.279Z,62
2022-08-04T00:40:50.286Z,62
2022-08-04T00:43:00.134Z,62
2022-08-04T00:44:50.366Z,62
2022-08-04T00:46:50.603Z,62
2022-08-04T00:48:50.556Z,61
2022-08-04T00:50:50.430Z,61
2022-08-04T00:52:54.383Z,61
2022-08-04T00:54:50.517Z,61
2022-08-04T00:56:50.891Z,62
2022-08-04T00:58:50.703Z,62
2022-08-04T01:00:50.706Z,62
2022-08-04T01:02:50.983Z,62
2022-08-04T01:04:50.435Z,62
2022-08-04T01:06:57.035Z,62
2022-08-04T01:08:51.008Z,62
2022-08-04T01:10:50.998Z,62
2022-08-04T01:12:50.141Z,62
2022-08-04T01:14:50.163Z,62
2022-08-04T01:16:50.512Z,62
2022-08-04T01:18:50.531Z,62
2022-08-04T01:20:50.602Z,62
2022-08-04T01:22:50.715Z,62
2022-08-04T01:24:51.982Z,62
2022-08-04T01:26:59.107Z,63
2022-08-04T01:28:50.718Z,63
2022-08-04T01:30:50.859Z,63
2022-08-04T01:32:50.920Z,63
2022-08-04T01:34:50.280Z,63
2022-08-04T01:36:51.204Z,63
2022-08-04T01:38:50.745Z,63
2022-08-04T01:40:50.835Z,62
2022-08-04T01:42:50.765Z,62
2022-08-04T01:44:50.753Z,62
2022-08-04T01:46:51.070Z,62
2022-08-04T01:48:51.011Z,63
2022-08-04T01:50:54.141Z,63
2022-08-04T01:52:51.869Z,63
2022-08-04T01:54:50.772Z,63
2022-08-04T01:56:50.133Z,63
2022-08-04T01:58:51.027Z,64
2022-08-04T02:00:57.180Z,63
2022-08-04T02:02:50.726Z,63
2022-08-04T02:04:50.238Z,64
2022-08-04T02:06:50.587Z,64
2022-08-04T02:08:50.931Z,64
2022-08-04T02:10:50.729Z,64
2022-08-04T02:12:50.715Z,64
2022-08-04T02:14:50.682Z,63
2022-08-04T02:16:53.352Z,63
2022-08-04T02:18:50.334Z,63
2022-08-04T02:20:50.309Z,63
2022-08-04T02:22:50.301Z,64
2022-08-04T02:24:50.230Z,64
2022-08-04T02:26:50.608Z,64
2022-08-04T02:28:50.540Z,64
2022-08-04T02:30:50.566Z,63
2022-08-04T02:32:50.637Z,64
2022-08-04T02:34:51.711Z,64
2022-08-04T02:36:50.980Z,64
2022-08-04T02:38:50.498Z,64
2022-08-04T02:40:50.241Z,64
2022-08-04T02:42:50.265Z,64
2022-08-04T02:44:50.218Z,63
2022-08-04T02:46:50.382Z,63
2022-08-04T02:48:50.281Z,63
2022-08-04T02:50:52.684Z,63
2022-08-04T02:52:50.678Z,63
2022-08-04T02:54:50.738Z,63
2022-08-04T02:56:50.953Z,64
2022-08-04T02:58:51.004Z,64
2022-08-04T03:00:51.341Z,63
2022-08-04T03:02:50.270Z,63
2022-08-04T03:04:50.699Z,63
2022-08-04T03:06:50.039Z,63
2022-08-04T03:08:50.981Z,63
2022-08-04T03:10:50.267Z,62
2022-08-04T03:12:50.193Z,62
2022-08-04T03:14:50.191Z,62
2022-08-04T03:16:50.532Z,63
2022-08-04T03:18:50.510Z,64
2022-08-04T03:20:50.544Z,64
2022-08-04T03:23:14.502Z,63
2022-08-04T03:24:50.554Z,63
2022-08-04T03:26:51.009Z,63
2022-08-04T03:28:50.072Z,63
2022-08-04T03:30:50.394Z,63
2022-08-04T03:32:50.585Z,63
2022-08-04T03:34:50.971Z,65
2022-08-04T03:36:50.212Z,65
2022-08-04T03:38:58.110Z,64
2022-08-04T03:40:50.257Z,64
2022-08-04T03:42:50.306Z,64
2022-08-04T03:44:50.250Z,63
2022-08-04T03:46:50.597Z,64
2022-08-04T03:48:56.283Z,64
2022-08-04T03:50:50.383Z,63
2022-08-04T03:52:50.651Z,63
2022-08-04T03:54:50.622Z,63
2022-08-04T03:56:50.865Z,65
2022-08-04T03:58:50.871Z,64
2022-08-04T04:00:51.184Z,64
2022-08-04T04:02:50.636Z,63
2022-08-04T04:04:50.953Z,63
2022-08-04T04:06:54.815Z,63
2022-08-04T04:08:51.891Z,63
2022-08-04T04:10:50.977Z,65
2022-08-04T04:12:50.091Z,65
2022-08-04T04:14:50.097Z,66
2022-08-04T04:16:50.398Z,66
2022-08-04T04:18:50.505Z,66
2022-08-04T04:20:50.615Z,66
2022-08-04T04:22:50.635Z,65
2022-08-04T04:24:50.692Z,65
2022-08-04T04:26:50.024Z,65
2022-08-04T04:28:51.005Z,65
2022-08-04T04:30:50.743Z,65
2022-08-04T04:32:50.993Z,64
2022-08-04T04:34:50.617Z,65
2022-08-04T04:36:50.901Z,65
2022-08-04T04:38:51.155Z,65
2022-08-04T04:40:50.319Z,66
2022-08-04T04:42:50.294Z,66
2022-08-04T04:44:50.237Z,66
2022-08-04T04:46:50.531Z,64
2022-08-04T04:48:50.504Z,64
2022-08-04T04:50:50.553Z,63
2022-08-04T04:52:50.543Z,61
2022-08-04T04:54:50.911Z,60
2022-08-04T04:56:50.269Z,60
2022-08-04T04:58:50.214Z,60
2022-08-04T05:00:50.258Z,60
2022-08-04T05:02:50.257Z,59
2022-08-04T05:04:50.865Z,59
2022-08-04T05:06:55.246Z,60
2022-08-04T05:08:55.089Z,60
2022-08-04T05:10:50.216Z,59
2022-08-04T05:14:33.374Z,59
2022-08-04T05:14:50.378Z,58
2022-08-04T05:16:50.538Z,58
2022-08-04T05:18:50.573Z,58
2022-08-04T05:20:50.648Z,57
2022-08-04T05:22:50.739Z,56
2022-08-04T05:24:50.577Z,55
2022-08-04T05:26:51.019Z,55
2022-08-04T05:28:50.064Z,55
2022-08-04T05:30:50.327Z,54
2022-08-04T05:32:50.190Z,54
2022-08-04T05:34:50.617Z,53
2022-08-04T05:36:50.833Z,53
2022-08-04T05:38:51.401Z,52
2022-08-04T05:40:50.426Z,52
2022-08-04T05:42:50.393Z,51
2022-08-04T05:44:51.854Z,51
2022-08-04T05:46:55.309Z,51
2022-08-04T05:48:50.378Z,50
2022-08-04T05:50:50.309Z,50
2022-08-04T05:52:50.201Z,50
2022-08-04T05:54:50.056Z,50
2022-08-04T05:56:50.365Z,50
2022-08-04T05:58:50.129Z,50
2022-08-04T06:00:53.173Z,50
2022-08-04T06:02:50.146Z,50
2022-08-04T06:04:50.365Z,50
2022-08-04T06:06:50.523Z,50
2022-08-04T06:08:50.625Z,50
2022-08-04T06:10:50.766Z,50
2022-08-04T06:12:50.729Z,50
2022-08-04T06:14:51.000Z,50
2022-08-04T06:16:54.633Z,50
2022-08-04T06:19:57.961Z,50
2022-08-04T06:20:51.367Z,50
2022-08-04T06:22:50.577Z,50
2022-08-04T06:24:50.495Z,50
2022-08-04T06:26:51.229Z,50
2022-08-04T06:28:50.275Z,50
2022-08-04T06:30:50.474Z,50
2022-08-04T06:33:03.275Z,50
2022-08-04T06:34:50.393Z,50
2022-08-04T06:36:50.675Z,49
2022-08-04T06:38:59.304Z,48
2022-08-04T06:40:50.364Z,48
2022-08-04T06:42:50.321Z,48
2022-08-04T06:44:51.557Z,48
2022-08-04T06:46:51.053Z,48
2022-08-04T06:48:51.002Z,48
2022-08-04T06:51:37.218Z,49
2022-08-04T06:52:50.945Z,49
2022-08-04T06:54:50.096Z,48
2022-08-04T06:56:50.399Z,48
2022-08-04T06:58:50.489Z,48
2022-08-04T07:00:50.540Z,48
2022-08-04T07:02:50.463Z,48
2022-08-04T07:04:50.895Z,48
2022-08-04T07:06:50.307Z,48
2022-08-04T07:08:50.587Z,48
2022-08-04T07:10:50.387Z,47
2022-08-04T07:12:54.556Z,47
2022-08-04T07:14:50.626Z,47
2022-08-04T07:16:51.030Z,46
2022-08-04T07:18:50.873Z,46
2022-08-04T07:20:50.865Z,46
2022-08-04T07:22:50.917Z,45
2022-08-04T07:24:51.559Z,46
2022-08-04T07:26:50.695Z,46
2022-08-04T07:28:50.721Z,46
2022-08-04T07:30:50.967Z,46
2022-08-04T07:32:50.958Z,46
2022-08-04T07:34:50.548Z,45
2022-08-04T07:36:56.441Z,45
2022-08-04T07:38:53.108Z,45
2022-08-04T07:40:50.422Z,45
2022-08-04T07:42:50.607Z,45
2022-08-04T07:44:52.748Z,45
2022-08-04T07:46:50.075Z,45
2022-08-04T07:48:50.935Z,44
2022-08-04T07:50:50.215Z,44
2022-08-04T07:53:52.734Z,44
2022-08-04T07:54:50.144Z,44
2022-08-04T07:56:50.262Z,44
2022-08-04T07:58:51.235Z,42
2022-08-04T08:00:50.160Z,42
2022-08-04T08:02:50.230Z,41
2022-08-04T08:04:50.913Z,41
2022-08-04T08:06:50.306Z,42
2022-08-04T08:08:50.616Z,42
2022-08-04T08:10:50.586Z,42
2022-08-04T08:12:53.120Z,42
2022-08-04T08:14:50.165Z,41
2022-08-04T08:16:50.382Z,41
2022-08-04T08:18:50.726Z,41
2022-08-04T08:20:50.651Z,40
2022-08-04T08:22:50.667Z,41
2022-08-04T08:24:50.739Z,41
2022-08-04T08:26:50.235Z,40
2022-08-04T08:28:50.305Z,39
2022-08-04T08:30:53.438Z,39
2022-08-04T08:32:50.365Z,40
2022-08-04T08:34:50.929Z,39
2022-08-04T08:36:50.319Z,39
2022-08-04T08:38:50.300Z,39
2022-08-04T08:40:50.486Z,38
2022-08-04T08:42:50.399Z,38
2022-08-04T08:44:58.323Z,38
2022-08-04T08:46:51.311Z,38
2022-08-04T08:48:50.570Z,37
2022-08-04T08:50:50.656Z,36
2022-08-04T08:53:03.509Z,36
2022-08-04T08:54:50.586Z,36
2022-08-04T08:56:50.868Z,36
2022-08-04T08:58:50.758Z,36
2022-08-04T09:00:50.770Z,36
2022-08-04T09:03:05.794Z,36
2022-08-04T09:04:50.644Z,36
2022-08-04T09:06:51.026Z,37
2022-08-04T09:08:51.050Z,37
2022-08-04T09:10:50.887Z,36
2022-08-04T09:12:50.939Z,36
2022-08-04T09:14:51.008Z,37
2022-08-04T09:16:50.309Z,36
2022-08-04T09:18:50.268Z,35
2022-08-04T09:20:50.230Z,35
2022-08-04T09:22:50.187Z,35
2022-08-04T09:24:50.455Z,35
2022-08-04T09:27:01.020Z,35
2022-08-04T09:28:55.830Z,35
2022-08-04T09:30:50.776Z,34
2022-08-04T09:32:50.773Z,34
2022-08-04T09:35:16.380Z,34
2022-08-04T09:36:50.545Z,33
2022-08-04T09:38:53.368Z,33
2022-08-04T09:41:00.691Z,33
2022-08-04T09:42:50.284Z,33
2022-08-04T09:45:07.130Z,33
2022-08-04T09:46:50.645Z,33
2022-08-04T09:48:50.554Z,33
2022-08-04T09:50:51.215Z,33
2022-08-04T09:52:50.149Z,33
2022-08-04T09:54:50.248Z,33
2022-08-04T09:56:50.669Z,33
2022-08-04T09:58:50.745Z,33
2022-08-04T10:00:50.639Z,32
2022-08-04T10:02:51.086Z,32
2022-08-04T10:04:50.683Z,32
2022-08-04T10:06:50.115Z,32
2022-08-04T10:08:57.696Z,32
2022-08-04T10:10:50.731Z,32
2022-08-04T10:12:50.746Z,32
2022-08-04T10:14:50.563Z,32
2022-08-04T10:16:50.954Z,32
2022-08-04T10:18:50.937Z,32
2022-08-04T10:21:15.707Z,32
2022-08-04T10:23:12.798Z,32
2022-08-04T10:24:50.882Z,33
2022-08-04T10:26:58.610Z,32
2022-08-04T10:28:50.734Z,32
2022-08-04T10:30:50.680Z,31
2022-08-04T10:32:50.929Z,32
2022-08-04T10:34:50.214Z,31
2022-08-04T10:36:50.286Z,31
2022-08-04T10:38:50.174Z,31
2022-08-04T10:40:50.245Z,31
2022-08-04T10:42:51.034Z,31
2022-08-04T10:44:58.512Z,31
2022-08-04T10:46:50.842Z,31
2022-08-04T10:48:51.009Z,31
2022-08-04T10:50:57.608Z,31
2022-08-04T10:52:50.644Z,31
2022-08-04T10:54:50.735Z,30
2022-08-04T10:56:57.350Z,30
2022-08-04T10:58:50.743Z,31
2022-08-04T11:00:50.744Z,30
2022-08-04T11:02:51.135Z,30
2022-08-04T11:04:50.522Z,30
2022-08-04T11:06:54.614Z,31
2022-08-04T11:08:54.659Z,31
2022-08-04T11:10:50.970Z,30
2022-08-04T11:12:50.808Z,31
2022-08-04T11:14:50.810Z,31
2022-08-04T11:16:50.970Z,31
2022-08-04T11:20:54.386Z,30
2022-08-04T11:22:50.406Z,31
2022-08-04T11:24:50.213Z,31
2022-08-04T11:26:50.441Z,30
2022-08-04T11:29:05.055Z,30
2022-08-04T11:30:50.461Z,30
2022-08-04T11:32:50.544Z,29
2022-08-04T11:34:53.649Z,29
2022-08-04T11:36:50.210Z,29
2022-08-04T11:38:53.277Z,29
2022-08-04T11:41:03.640Z,30
2022-08-04T11:42:50.349Z,29
2022-08-04T11:44:50.361Z,30
2022-08-04T11:46:50.506Z,30
2022-08-04T11:48:50.486Z,29
2022-08-04T11:50:54.696Z,29
2022-08-04T11:52:50.711Z,29
2022-08-04T11:54:55.381Z,29
2022-08-04T11:56:50.827Z,29
2022-08-04T11:58:51.195Z,28
2022-08-04T12:00:50.115Z,29
2022-08-04T12:02:51.439Z,29
2022-08-04T12:04:50.858Z,28
2022-08-04T12:07:31.789Z,28
2022-08-04T12:08:50.211Z,28
2022-08-04T12:10:50.280Z,28
2022-08-04T12:12:50.280Z,28
2022-08-04T12:14:50.337Z,28
2022-08-04T12:16:50.702Z,28
2022-08-04T12:18:55.351Z,28
2022-08-04T12:20:50.226Z,28
2022-08-04T12:22:50.304Z,28
2022-08-04T12:24:50.119Z,28
2022-08-04T12:26:50.373Z,27
2022-08-04T12:29:11.962Z,28
2022-08-04T12:31:12.139Z,28
2022-08-04T12:32:55.831Z,28
2022-08-04T12:34:50.346Z,28
2022-08-04T12:36:50.502Z,27
2022-08-04T12:38:50.483Z,28
2022-08-04T12:40:50.519Z,28
2022-08-04T12:43:00.629Z,28
2022-08-04T12:44:50.559Z,27
2022-08-04T12:46:50.817Z,27
2022-08-04T12:48:50.751Z,27
2022-08-04T12:50:50.853Z,27
2022-08-04T12:53:04.669Z,27
2022-08-04T12:54:50.792Z,27
2022-08-04T12:56:50.401Z,27
2022-08-04T12:58:50.413Z,27
2022-08-04T13:00:50.648Z,27
2022-08-04T13:02:50.800Z,27
2022-08-04T13:04:52.943Z,26
2022-08-04T13:06:50.259Z,26
2022-08-04T13:08:50.327Z,26
2022-08-04T13:10:50.237Z,26
2022-08-04T13:12:50.404Z,27
2022-08-04T13:14:50.545Z,27
2022-08-04T13:16:50.923Z,27
2022-08-04T13:18:50.847Z,27
2022-08-04T13:20:50.827Z,27
2022-08-04T13:22:53.351Z,27
2022-08-04T13:26:40.971Z,26
2022-08-04T13:26:56.863Z,26
2022-08-04T13:28:51.309Z,26
2022-08-04T13:30:50.359Z,27
2022-08-04T13:32:50.237Z,26
2022-08-04T13:34:53.823Z,26
2022-08-04T13:36:50.254Z,26
2022-08-04T13:38:50.162Z,26
2022-08-04T13:40:50.421Z,26
2022-08-04T13:42:50.273Z,26
2022-08-04T13:44:50.376Z,26
2022-08-04T13:46:51.666Z,26
2022-08-04T13:49:37.873Z,26
2022-08-04T13:50:51.876Z,26
2022-08-04T13:52:50.912Z,26
2022-08-04T13:54:54.249Z,26
2022-08-04T13:56:51.219Z,26
2022-08-04T13:58:50.380Z,27
2022-08-04T14:00:50.765Z,27
2022-08-04T14:02:50.834Z,26
2022-08-04T14:04:50.100Z,26
2022-08-04T14:06:50.411Z,26
2022-08-04T14:08:50.330Z,26
2022-08-04T14:10:50.410Z,26
2022-08-04T14:12:50.189Z,26
2022-08-04T14:14:50.265Z,26
2022-08-04T14:16:50.498Z,26
2022-08-04T14:18:50.783Z,26
2022-08-04T14:20:50.800Z,26
2022-08-04T14:22:50.919Z,26
2022-08-04T14:24:50.029Z,26
2022-08-04T14:26:50.269Z,26
2022-08-04T14:29:29.201Z,25
2022-08-04T14:30:50.506Z,25
2022-08-04T14:32:58.923Z,25
2022-08-04T14:34:52.127Z,24
2022-08-04T14:37:21.015Z,24
2022-08-04T14:38:50.147Z,25
2022-08-04T14:40:50.166Z,25
2022-08-04T14:42:57.034Z,26
2022-08-04T14:44:50.922Z,26
2022-08-04T14:46:50.981Z,26
2022-08-04T14:48:51.682Z,26
2022-08-04T14:50:50.928Z,26
2022-08-04T14:52:50.790Z,26
2022-08-04T14:54:50.872Z,26
2022-08-04T14:56:51.625Z,26
2022-08-04T14:58:50.479Z,26
2022-08-04T15:00:50.447Z,26
2022-08-04T15:02:50.545Z,26
2022-08-04T15:04:53.732Z,26
2022-08-04T15:06:51.025Z,26
2022-08-04T15:08:50.047Z,26
2022-08-04T15:10:50.998Z,26
2022-08-04T15:12:50.985Z,26
2022-08-04T15:14:50.960Z,25
2022-08-04T15:16:55.213Z,25
2022-08-04T15:18:50.498Z,25
2022-08-04T15:20:50.478Z,25
2022-08-04T15:22:50.298Z,25
2022-08-04T15:24:56.480Z,25
2022-08-04T15:26:50.106Z,25
2022-08-04T15:28:50.164Z,24
2022-08-04T15:30:54.037Z,24
2022-08-04T15:32:50.056Z,24
2022-08-04T15:34:50.530Z,25
2022-08-04T15:36:58.309Z,25
2022-08-04T15:38:53.429Z,24
2022-08-04T15:40:50.912Z,24
2022-08-04T15:42:50.956Z,26
2022-08-04T15:44:50.917Z,26
2022-08-04T15:46:50.236Z,25
2022-08-04T15:48:50.131Z,26
2022-08-04T15:50:50.227Z,26
2022-08-04T15:53:13.655Z,25
2022-08-04T15:54:53.552Z,25
2022-08-04T15:57:04.166Z,25
2022-08-04T15:58:50.223Z,25
2022-08-04T16:00:50.232Z,25
2022-08-04T16:02:50.541Z,25
2022-08-04T16:04:50.834Z,25
2022-08-04T16:06:50.994Z,25
2022-08-04T16:08:58.827Z,25
2022-08-04T16:10:50.964Z,25
2022-08-04T16:12:57.192Z,25
2022-08-04T16:14:51.317Z,24
2022-08-04T16:16:50.742Z,24
2022-08-04T16:18:50.741Z,24
2022-08-04T16:20:52.607Z,24
2022-08-04T16:22:50.403Z,24
2022-08-04T16:24:50.266Z,25
2022-08-04T16:26:57.644Z,25
2022-08-04T16:28:50.510Z,25
2022-08-04T16:30:50.391Z,25
2022-08-04T16:32:50.274Z,25
2022-08-04T16:34:57.343Z,24
2022-08-04T16:36:50.772Z,25
2022-08-04T16:38:50.637Z,25
2022-08-04T16:40:50.553Z,25
2022-08-04T16:42:52.087Z,24
2022-08-04T16:44:54.252Z,24
2022-08-04T16:47:22.941Z,24
2022-08-04T16:48:50.129Z,24
2022-08-04T16:50:51.030Z,25
2022-08-04T16:52:50.946Z,25
2022-08-04T16:54:50.742Z,25
2022-08-04T16:56:51.014Z,25
2022-08-04T16:58:55.043Z,25
2022-08-04T17:00:50.057Z,26
2022-08-04T17:02:50.122Z,26
2022-08-04T17:05:08.571Z,26
2022-08-04T17:06:50.936Z,25
2022-08-04T17:08:50.836Z,24
2022-08-04T17:10:50.637Z,25
2022-08-04T17:14:01.265Z,25
2022-08-04T17:14:54.839Z,24
2022-08-04T17:16:50.190Z,24
2022-08-04T17:18:50.077Z,24
2022-08-04T17:21:02.699Z,24
2022-08-04T17:22:50.455Z,24
2022-08-04T17:24:50.527Z,26
2022-08-04T17:26:55.915Z,26
2022-08-04T17:28:50.939Z,25
2022-08-04T17:30:52.557Z,25
2022-08-04T17:32:52.288Z,25
2022-08-04T17:34:50.454Z,25
2022-08-04T17:36:50.586Z,25
2022-08-04T17:38:52.500Z,25
2022-08-04T17:40:50.474Z,25
2022-08-04T17:42:52.040Z,25
2022-08-04T17:44:50.418Z,25
2022-08-04T17:46:50.482Z,25
2022-08-04T17:48:51.266Z,25
2022-08-04T17:50:50.615Z,25
2022-08-04T17:52:51.454Z,25
2022-08-04T17:55:03.319Z,25
2022-08-04T17:56:59.149Z,25
2022-08-04T17:58:53.865Z,25
2022-08-04T18:01:25.495Z,25
2022-08-04T18:02:53.339Z,25
2022-08-04T18:05:14.745Z,25
2022-08-04T18:06:53.645Z,24
2022-08-04T18:09:57.488Z,26
2022-08-04T18:10:57.693Z,26
2022-08-04T18:12:50.777Z,26
2022-08-04T18:14:50.614Z,26
2022-08-04T18:16:56.218Z,26
2022-08-04T18:18:51.378Z,26
2022-08-04T18:20:50.888Z,26
2022-08-04T18:22:52.119Z,26
2022-08-04T18:24:57.413Z,27
2022-08-04T18:26:52.340Z,27
2022-08-04T18:28:50.316Z,27
2022-08-04T18:30:56.787Z,27
2022-08-04T18:33:38.137Z,27
2022-08-04T18:34:55.865Z,27
2022-08-04T18:36:59.665Z,27
2022-08-04T18:39:15.912Z,27
2022-08-04T18:40:59.205Z,27
2022-08-04T18:42:50.075Z,28
2022-08-04T18:44:57.494Z,28
2022-08-04T18:46:56.363Z,28
2022-08-04T18:48:53.262Z,28
2022-08-04T18:51:30.827Z,28
2022-08-04T18:52:53.795Z,28
2022-08-04T18:54:53.152Z,28
2022-08-04T18:57:32.911Z,28
2022-08-04T18:58:50.221Z,29
2022-08-04T19:00:51.338Z,29
2022-08-04T19:02:50.279Z,29
2022-08-04T19:04:53.752Z,29
2022-08-04T19:06:50.356Z,29
2022-08-04T19:08:50.960Z,29
2022-08-04T19:11:00.783Z,29
2022-08-04T19:12:52.981Z,30
2022-08-04T19:15:11.893Z,30
2022-08-04T19:16:50.670Z,30
2022-08-04T19:18:51.946Z,30
2022-08-04T19:20:51.685Z,30
2022-08-04T19:24:12.279Z,30
2022-08-04T19:24:50.840Z,31
2022-08-04T19:26:50.181Z,31
2022-08-04T19:28:51.466Z,31
2022-08-04T19:30:51.061Z,31
2022-08-04T19:32:51.060Z,31
2022-08-04T19:34:50.662Z,31
2022-08-04T19:36:51.605Z,31
2022-08-04T19:38:50.628Z,31
2022-08-04T19:40:53.533Z,32
2022-08-04T19:43:15.631Z,32
2022-08-04T19:44:50.741Z,32
2022-08-04T19:46:50.139Z,32
2022-08-04T19:49:01.202Z,32
2022-08-04T19:50:50.418Z,32
2022-08-04T19:52:53.309Z,33
2022-08-04T19:54:50.554Z,33
2022-08-04T19:56:50.126Z,33
2022-08-04T19:58:50.874Z,33
2022-08-04T20:00:52.058Z,33
2022-08-04T20:02:50.421Z,33
2022-08-04T20:04:52.287Z,33
2022-08-04T20:06:50.569Z,34
2022-08-04T20:08:57.414Z,34
2022-08-04T20:10:55.381Z,34
2022-08-04T20:12:56.484Z,34
2022-08-04T20:14:56.240Z,34
2022-08-04T20:16:50.512Z,35
2022-08-04T20:19:10.568Z,35
2022-08-04T20:20:50.954Z,35
2022-08-04T20:23:01.003Z,35
2022-08-04T20:25:37.118Z,35
2022-08-04T20:26:50.835Z,35
2022-08-04T20:28:56.399Z,35
2022-08-04T20:30:50.737Z,36
2022-08-04T20:32:53.485Z,36
2022-08-04T20:34:52.801Z,36
2022-08-04T20:36:50.706Z,37
2022-08-04T20:38:53.632Z,37
2022-08-04T20:40:50.844Z,37
2022-08-04T20:42:50.146Z,37
2022-08-04T20:44:50.071Z,37
2022-08-04T20:46:51.307Z,38
2022-08-04T20:48:50.250Z,39
2022-08-04T20:50:50.113Z,39
2022-08-04T20:52:51.087Z,39
2022-08-04T20:54:56.844Z,41
2022-08-04T20:56:54.213Z,41
2022-08-04T20:58:52.107Z,40
2022-08-04T21:00:58.521Z,40
2022-08-04T21:02:50.592Z,40
2022-08-04T21:04:50.751Z,39
2022-08-04T21:06:51.064Z,40
2022-08-04T21:08:58.263Z,39
2022-08-04T21:10:50.198Z,39
2022-08-04T21:12:52.175Z,39
2022-08-04T21:14:50.170Z,40
2022-08-04T21:16:58.562Z,39
2022-08-04T21:18:50.530Z,39
2022-08-04T21:20:54.112Z,39
2022-08-04T21:22:50.222Z,39
2022-08-04T21:24:50.473Z,40
2022-08-04T21:26:57.610Z,43
2022-08-04T21:28:53.897Z,44
2022-08-04T21:30:57.214Z,44
2022-08-04T21:32:52.599Z,44
2022-08-04T21:34:54.995Z,44
2022-08-04T21:36:52.648Z,45
2022-08-04T21:38:53.675Z,45
2022-08-04T21:40:54.834Z,45
2022-08-04T21:42:54.673Z,45
2022-08-04T21:44:51.411Z,46
2022-08-04T21:46:51.732Z,46
2022-08-04T21:48:50.149Z,47
2022-08-04T21:50:51.284Z,47
2022-08-04T21:52:52.764Z,47
2022-08-04T21:54:55.379Z,47
2022-08-04T21:56:53.096Z,47
2022-08-04T21:58:58.310Z,47
2022-08-04T22:00:53.431Z,47
2022-08-04T22:02:54.298Z,47
2022-08-04T22:04:50.618Z,47
2022-08-04T22:06:53.646Z,47
2022-08-04T22:08:51.224Z,47
2022-08-04T22:10:50.220Z,47
2022-08-04T22:12:53.038Z,48
2022-08-04T22:15:00.593Z,49
2022-08-04T22:16:54.983Z,49
2022-08-04T22:18:54.441Z,49
2022-08-04T22:20:51.389Z,49
2022-08-04T22:22:51.938Z,49
2022-08-04T22:24:50.784Z,49
2022-08-04T22:26:51.463Z,50
2022-08-04T22:28:50.598Z,50
2022-08-04T22:30:52.852Z,50
2022-08-04T22:32:51.196Z,50
2022-08-04T22:34:55.700Z,49
2022-08-04T22:36:54.146Z,50
2022-08-04T22:39:08.456Z,50
2022-08-04T22:40:51.437Z,50
2022-08-04T22:42:51.403Z,50
2022-08-04T22:44:52.044Z,50
2022-08-04T22:46:50.268Z,50
2022-08-04T22:48:50.865Z,50
2022-08-04T22:50:50.833Z,51
2022-08-04T22:53:01.456Z,51
2022-08-04T22:54:51.507Z,51
2022-08-04T22:56:53.087Z,51
2022-08-04T22:58:54.391Z,51
2022-08-04T23:00:58.984Z,52
2022-08-04T23:02:52.325Z,52
2022-08-04T23:04:54.737Z,52
2022-08-04T23:06:51.121Z,52
2022-08-04T23:08:51.275Z,52
2022-08-04T23:10:50.353Z,51
2022-08-04T23:12:51.117Z,51
2022-08-04T23:14:52.696Z,52
2022-08-04T23:16:54.585Z,52
2022-08-04T23:18:51.936Z,52
2022-08-04T23:20:54.160Z,52
2022-08-04T23:22:56.447Z,52
2022-08-04T23:24:50.890Z,52
2022-08-04T23:26:50.987Z,52
2022-08-04T23:28:50.884Z,52
2022-08-04T23:30:56.813Z,52
2022-08-04T23:32:51.290Z,52
2022-08-04T23:34:50.735Z,52
2022-08-04T23:36:50.912Z,52
2022-08-04T23:38:50.753Z,53
2022-08-04T23:40:53.600Z,53
2022-08-04T23:42:50.849Z,53
2022-08-04T23:44:51.265Z,53
2022-08-04T23:46:55.964Z,53
2022-08-04T23:48:50.758Z,54
2022-08-04T23:50:50.885Z,54
2022-08-04T23:52:53.035Z,54
2022-08-04T23:54:51.327Z,54
2022-08-04T23:56:51.877Z,54
2022-08-04T23:58:51.676Z,54
